GCHI/VDE METAR and TAF weather

Enter ICAO airport designator
Station Type Date Time Source
GCHI METAR 2021/10/24 22:30 UTC NOAA

GCHI 242230Z AUTO 00000KT 9999 FEW028 22/18 Q1021


Station Type Date Time Source
GCHI Decoded METAR 2021/10/24 22:30 UTC NOAA

Hierro / Aeropuerto, Spain (GCHI) 27-49N 017-53W 32M
Oct 24, 2021 - 06:30 PM EDT / 2021.10.24 2230 UTC
Wind: Calm:0
Visibility: greater than 7 mile(s):0
Sky conditions: mostly clear
Temperature: 71 F (22 C)
Dew Point: 64 F (18 C)
Relative Humidity: 78%
Pressure (altimeter): 30.15 in. Hg (1021 hPa)
ob: GCHI 242230Z AUTO 00000KT 9999 FEW028 22/18 Q1021
cycle: 22

Station Type Date Time Source
GCHI TAF 2021/10/24 22:00 UTC NOAA

TAF
AMD GCHI 242203Z 2422/2521 03008KT 9999 SCT030 TX24/2514Z TN20/2506Z PROB30
TEMPO 2424/2506 RA

Example: see airport list